Motte Rimrock Reserve, California Weather observations

Data are for 10 minute period ending at time listed.
 Day   Time   Solar   Ave.   Ave.  Ave.  Vector  Max.   Baro.   Total    
  of    of     Rad.   Air    Rel.  Wind   Wind   Wind  Press.  Precip.   
Year   Day            Temp.  Hum.  Speed  Dir.   Gust                    
2014   (PST)  Kw/m2    F      %     mph   deg.    mph    mb.     in.     
-------------------------------------------------------------------------
 238    3:40   0.00   66.7    52    4.1    54     4.8   947.3    0.00 
 238    3:50   0.00   66.3    52    4.4    33     5.6   947.3    0.00 
 238    4:00   0.00   66.5    50    4.4    24     5.3   947.3    0.00 
 238    4:10   0.00   65.7    57    3.5   360     4.8   947.4    0.00 
 238    4:20   0.00   66.1    53    2.5    54     3.4   947.5    0.00 
 238    4:30   0.00   66.7    51    2.8    57     3.4   947.6    0.00 
 238    4:40   0.00   66.5    51    2.9    82     4.2   947.6    0.00 
 238    4:50   0.00   66.5    50    3.3   110     4.3   947.7    0.00 
 238    5:00   0.00   66.2    50    4.3   126     4.8   947.7    0.00 
 238    5:10   0.00   65.4    52    2.6   140     3.6   947.8    0.00 
 238    5:20   0.00   65.4    52    2.8   140     3.9   947.9    0.00 
 238    5:30   0.00   65.2    53    3.7   150     4.6   947.9    0.00 
 238    5:40   0.00   64.9    53    4.3   148     5.0   947.9    0.00 
 238    5:50   0.01   64.6    54    3.8   153     4.5   947.9    0.00 
 238    6:00   0.02   64.9    54    1.0   163     2.9   948.1    0.00 
 238    6:10   0.06   66.0    52    1.7   181     2.0   948.1    0.00 
 238    6:20   0.04   66.3    53    1.9   190     2.3   948.1    0.00 
 238    6:30   0.11   66.3    54    2.7   185     3.5   948.2    0.00 
 238    6:40   0.08   67.4    51    1.9   172     3.2   948.2    0.00 
 238    6:50   0.08   67.9    49    1.2   124     2.2   948.3    0.00 
 238    7:00   0.10   68.8    47    1.9    69     3.0   948.3    0.00 
 238    7:10   0.17   69.3    46    2.2    84     3.2   948.4    0.00 
 238    7:20   0.39   71.8    42    1.6   138     2.9   948.5    0.00 
 238    7:30   0.24   72.4    41    2.6   140     4.4   948.5    0.00 
 238    7:40   0.21   72.0    43    3.7    98     6.4   948.5    0.00 
 238    7:50   0.39   72.1    43    4.0    98     5.3   948.5    0.00 
 238    8:00   0.48   73.1    43    4.7    98     7.8   948.6    0.00 
 238    8:10   0.52   73.7    41    4.3   103     7.3   948.7    0.00 
 238    8:20   0.41   74.6    40    3.6    99     6.3   948.6    0.00 
 238    8:30   0.53   76.0    39    3.7   130     6.4   948.7    0.00 
 238    8:40   0.60   76.8    39    4.2   143     6.6   948.7    0.00 
 238    8:50   0.45   77.0    39    3.8   123     6.6   948.7    0.00 
 238    9:00   0.40   77.2    38    3.6   146     7.0   948.8    0.00 
 238    9:10   0.45   77.8    38    4.1   124     9.0   948.8    0.00 
 238    9:20   0.60   78.9    35    6.3   152     9.5   948.8    0.00 
 238    9:30   0.76   80.1    33    5.2   141     9.0   948.7    0.00 
 238    9:40   0.85   81.3    31    5.8   168     9.0   948.7    0.00 
 238    9:50   0.91   82.3    28    7.8   165    11.0   948.6    0.00 
 238   10:00   0.91   82.9    26    6.1   171    11.0   948.5    0.00 
 238   10:10   0.92   83.3    26    5.7   185     9.9   948.5    0.00 
 238   10:20   0.87   84.5    25    5.3   163    11.4   948.4    0.00 
 238   10:30   0.65   85.0    24    6.7   170    13.3   948.4    0.00 
 238   10:40   0.72   85.2    23    7.1   144    12.5   948.2    0.00 
 238   10:50   0.96   84.8    24    6.0   184    10.6   948.1    0.00 
 238   11:00   0.95   85.4    23    5.0   210    11.8   948.0    0.00 
 238   11:10   0.98   87.1    22    5.1   218    10.6   947.9    0.00 
 238   11:20   0.92   87.7    21    5.1   151     9.6   947.9    0.00 
 238   11:30   1.01   88.0    21    4.7   224    13.8   947.8    0.00 
 238   11:40   0.86   88.3    21    8.0   202    13.9   947.8    0.00 
 238   11:50   0.60   88.2    21    7.0   186    16.8   947.7    0.00 
 238   12:00   0.40   87.5    22    5.3   213    12.3   947.7    0.00 
 238   12:10   0.62   87.8    23    8.2   191    14.0   947.5    0.00 
 238   12:20   1.07   90.0    22    8.4   188    16.1   947.4    0.00 
 238   12:30   0.99   90.1    22    9.8   176    13.9   947.3    0.00 
 238   12:40   0.94   89.5    22    8.8   196    15.1   947.4    0.00 
 238   12:50   0.90   90.6    22    8.2   194    13.3   947.2    0.00 
 238   13:00   0.89   90.0    24    7.1   239    12.7   947.1    0.00 
 238   13:10   0.86   89.6    24    7.0   347    11.0   947.1    0.00 
 238   13:20   0.82   90.2    24    9.5   327    21.4   947.0    0.00 
 238   13:30   0.82   89.6    25   11.9   306    18.4   946.9    0.00 
 238   13:40   0.81   89.4    25   11.5   300    18.7   946.8    0.00 
 238   13:50   0.80   89.4    26   11.8   314    17.0   946.7    0.00 
 238   14:00   0.78   90.1    26   11.8   321    17.6   946.7    0.00 
 238   14:10   0.75   90.0    26    9.5   336    18.9   946.6    0.00 
 238   14:20   0.73   89.1    28    9.6   321    15.6   946.5    0.00 
 238   14:30   0.70   89.5    28   12.2   313    18.9   946.4    0.00 
 238   14:40   0.68   88.7    29   12.7   312    20.2   946.4    0.00 
 238   14:50   0.65   88.8    28   10.7   303    16.9   946.4    0.00 
 238   15:00   0.63   89.0    28   10.3   310    17.8   946.4    0.00 
 238   15:10   0.59   88.2    28   13.8   309    21.7   946.3    0.00 
 238   15:20   0.56   88.4    28   14.8   316    20.7   946.2    0.00 
 238   15:30   0.53   87.6    27   15.0   322    22.6   946.2    0.00 
 238   15:40   0.50   87.4    28   15.9   319    21.3   946.1    0.00 
 238   15:50   0.47   87.1    28   14.8   310    19.7   946.1    0.00 
 238   16:00   0.44   87.3    27   13.5   306    19.4   946.1    0.00 
 238   16:10   0.41   86.8    27   15.0   311    18.9   946.1    0.00 
 238   16:20   0.37   86.3    28   13.8   311    19.6   946.2    0.00 
 238   16:30   0.34   85.8    28   14.5   313    19.1   946.3    0.00 
 238   16:40   0.30   85.4    27   15.3   317    20.1   946.2    0.00 
 238   16:50   0.27   85.1    24   13.8   310    17.8   946.2    0.00 
 238   17:00   0.24   85.0    23   15.0   308    18.5   946.2    0.00 
 238   17:10   0.20   84.8    22   14.8   311    19.7   946.2    0.00 
 238   17:20   0.17   84.3    23   14.1   308    17.7   946.3    0.00 
 238   17:30   0.14   84.0    22   15.2   321    19.1   946.4    0.00 
 238   17:40   0.10   83.4    22   13.8   313    18.9   946.5    0.00 
 238   17:50   0.08   82.7    24   13.3   303    16.4   946.6    0.00 
 238   18:00   0.05   82.1    25   12.7   306    15.9   946.8    0.00 
 238   18:10   0.03   81.2    27   12.6   312    15.8   946.9    0.00 
 238   18:20   0.01   80.5    28   11.1   321    13.9   947.1    0.00 
 238   18:30   0.01   79.9    29   10.7   323    13.0   947.2    0.00 
 238   18:40   0.00   79.2    31   10.4   316    13.1   947.3    0.00 
 238   18:50   0.00   78.6    32    9.9   323    12.9   947.5    0.00 
 238   19:00   0.00   78.0    33   10.6   320    13.4   947.7    0.00 
 238   19:10   0.00   77.5    33    9.6   326    11.8   947.9    0.00 
 238   19:20   0.00   77.1    34   10.3   319    12.6   947.9    0.00 
 238   19:30   0.00   76.7    34    9.9   321    12.1   948.1    0.00 
 238   19:40   0.00   76.4    34    7.2   326     9.5   948.3    0.00 
 238   19:50   0.00   76.0    34    4.2   324     7.1   948.4    0.00 
 238   20:00   0.00   75.6    35    1.2    94     2.5   948.7    0.00 
 238   20:10   0.00   75.9    36    3.1   334     6.3   948.7    0.00 
 238   20:20   0.00   75.3    38    4.5   326     5.8   948.8    0.00 
 238   20:30   0.00   74.7    39    4.3   338     5.5   948.9    0.00 
 238   20:40   0.00   74.7    39    3.3     9     5.1   949.0    0.00 
 238   20:50   0.00   74.7    38    2.9     8     4.5   949.1    0.00 
 238   21:00   0.00   74.2    39    3.9   357     5.6   949.1    0.00 
 238   21:10   0.00   73.3    42    5.1   349     6.4   949.1    0.00 
 238   21:20   0.00   73.0    44    5.6   343     7.1   949.2    0.00 
 238   21:30   0.00   73.0    46    6.2   335     7.1   949.2    0.00 
 238   21:40   0.00   72.6    46    6.3   331     7.3   949.2    0.00 
 238   21:50   0.00   72.3    47    6.0   321     7.2   949.3    0.00 
 238   22:00   0.00   72.2    48    6.7   327     7.5   949.3    0.00 
 238   22:10   0.00   72.4    47    6.7   326     7.8   949.3    0.00 
 238   22:20   0.00   71.9    48    6.1   319     7.0   949.3    0.00 
 238   22:30   0.00   71.9    47    3.1   309     5.0   949.3    0.00 
 238   22:40   0.00   71.5    48    2.2   220     3.6   949.4    0.00 
 238   22:50   0.00   71.1    49    2.8   203     4.1   949.4    0.00 
 238   23:00   0.00   71.1    48    2.8   201     3.6   949.4    0.00 
 238   23:10   0.00   71.2    47    1.9   192     3.1   949.4    0.00 
 238   23:20   0.00   71.3    47    2.0   183     2.6   949.4    0.00 
 238   23:30   0.00   71.1    48    2.4   176     3.4   949.4    0.00 
 238   23:40   0.00   70.9    48    2.3   193     3.2   949.5    0.00 
 238   23:50   0.00   71.2    48    1.4   209     1.8   949.4    0.00 
 239    0:00   0.00   71.3    48    0.2   213     1.1   949.5    0.00 
 239    0:10   0.00   71.5    48    0.0   213     0.4   949.5    0.00 
 239    0:20   0.00   71.6    47    1.5   314     2.2   949.4    0.00 
 239    0:30   0.00   71.8    46    0.9   299     1.5   949.4    0.00 
 239    0:40   0.00   71.6    46    0.3   293     0.9   949.5    0.00 
 239    0:50   0.00   71.7    45    0.4   294     0.9   949.5    0.00 
 239    1:00   0.00   71.4    45    0.3    28     1.2   949.5    0.00 
 239    1:10   0.00   71.2    46    0.0     0     0.0   949.5    0.00 
 239    1:20   0.00   71.1    46    0.0     0     0.0   949.6    0.00 
 239    1:30   0.00   71.2    46    0.0     0     0.0   949.7    0.00 
 239    1:40   0.00   71.6    46    0.2     6     0.8   949.7    0.00 
 239    1:50   0.00   71.5    46    0.0     0     0.0   949.7    0.00 
 239    2:00   0.00   71.4    46    1.9    38     3.9   949.6    0.00 
 239    2:10   0.00   69.4    51    3.9    62     4.6   949.7    0.00 
 239    2:20   0.00   69.7    50    1.6    95     2.9   949.8    0.00 
 239    2:30   0.00   70.3    48    0.5   127     1.2   949.7    0.00 
 239    2:40   0.00   71.2    46    0.2   126     0.9   949.6    0.00 
 239    2:50   0.00   70.9    46    0.3   127     1.0   949.6    0.00 
 239    3:00   0.00   70.8    45    0.7   124     3.3   949.6    0.00 
 239    3:10   0.00   70.3    47    2.9   127     3.7   949.6    0.00 
 239    3:20   0.00   70.3    47    1.9   138     2.9   949.6    0.00 
 239    3:30   0.00   69.8    46    4.7   121     6.0   949.6    0.00 

Return to Motte Rimrock Reserve graphs page.


Western Regional Climate Center,wrcc@dri.edu